sensor_id;sensor_type;location;lat;lon;timestamp;temperature;humidity
32097;DHT22;18610;49.916;8.284;2022-10-31T00:00:06;11.70;99.90
32097;DHT22;18610;49.916;8.284;2022-10-31T00:02:33;11.60;99.90
32097;DHT22;18610;49.916;8.284;2022-10-31T00:05:00;11.60;99.90
32097;DHT22;18610;49.916;8.284;2022-10-31T00:07:27;11.60;99.90
32097;DHT22;18610;49.916;8.284;2022-10-31T00:09:54;11.60;99.90
32097;DHT22;18610;49.916;8.284;2022-10-31T00:12:21;11.70;99.90
32097;DHT22;18610;49.916;8.284;2022-10-31T00:14:49;11.70;99.90
32097;DHT22;18610;49.916;8.284;2022-10-31T00:17:17;11.70;99.90
32097;DHT22;18610;49.916;8.284;2022-10-31T00:19:44;11.70;99.90
32097;DHT22;18610;49.916;8.284;2022-10-31T00:22:11;11.70;99.90
32097;DHT22;18610;49.916;8.284;2022-10-31T00:24:38;11.70;99.90
32097;DHT22;18610;49.916;8.284;2022-10-31T00:27:04;11.70;99.90
32097;DHT22;18610;49.916;8.284;2022-10-31T00:29:31;11.70;99.90
32097;DHT22;18610;49.916;8.284;2022-10-31T00:31:59;11.70;99.90
32097;DHT22;18610;49.916;8.284;2022-10-31T00:34:26;11.70;99.90
32097;DHT22;18610;49.916;8.284;2022-10-31T00:36:53;11.70;99.90
32097;DHT22;18610;49.916;8.284;2022-10-31T00:39:20;11.70;99.90
32097;DHT22;18610;49.916;8.284;2022-10-31T00:41:47;11.70;99.90
32097;DHT22;18610;49.916;8.284;2022-10-31T00:44:14;11.70;99.90
32097;DHT22;18610;49.916;8.284;2022-10-31T00:46:40;11.70;99.90
32097;DHT22;18610;49.916;8.284;2022-10-31T00:49:08;11.70;99.90
32097;DHT22;18610;49.916;8.284;2022-10-31T00:51:35;11.70;99.90
32097;DHT22;18610;49.916;8.284;2022-10-31T00:54:02;11.80;99.90
32097;DHT22;18610;49.916;8.284;2022-10-31T00:56:29;11.90;99.90
32097;DHT22;18610;49.916;8.284;2022-10-31T00:58:56;11.80;99.90
32097;DHT22;18610;49.916;8.284;2022-10-31T01:01:23;11.80;99.90
32097;DHT22;18610;49.916;8.284;2022-10-31T01:03:50;11.80;99.90
32097;DHT22;18610;49.916;8.284;2022-10-31T01:06:18;11.80;99.90
32097;DHT22;18610;49.916;8.284;2022-10-31T01:08:46;11.80;99.90
32097;DHT22;18610;49.916;8.284;2022-10-31T01:11:15;11.80;99.90
32097;DHT22;18610;49.916;8.284;2022-10-31T01:13:43;11.80;99.90
32097;DHT22;18610;49.916;8.284;2022-10-31T01:16:13;11.80;99.90
32097;DHT22;18610;49.916;8.284;2022-10-31T01:18:40;11.90;99.90
32097;DHT22;18610;49.916;8.284;2022-10-31T01:21:12;11.90;99.90
32097;DHT22;18610;49.916;8.284;2022-10-31T01:23:41;11.90;99.90
32097;DHT22;18610;49.916;8.284;2022-10-31T01:26:09;11.90;99.90
32097;DHT22;18610;49.916;8.284;2022-10-31T01:28:39;11.90;99.90
32097;DHT22;18610;49.916;8.284;2022-10-31T01:31:07;11.90;99.90
32097;DHT22;18610;49.916;8.284;2022-10-31T01:33:37;11.90;99.90
32097;DHT22;18610;49.916;8.284;2022-10-31T01:36:12;11.90;99.90
32097;DHT22;18610;49.916;8.284;2022-10-31T01:38:41;11.90;99.90
32097;DHT22;18610;49.916;8.284;2022-10-31T01:41:08;11.90;99.90
32097;DHT22;18610;49.916;8.284;2022-10-31T01:43:45;11.90;99.90
32097;DHT22;18610;49.916;8.284;2022-10-31T01:46:12;11.90;99.90
32097;DHT22;18610;49.916;8.284;2022-10-31T01:48:40;11.90;99.90
32097;DHT22;18610;49.916;8.284;2022-10-31T01:51:08;11.90;99.90
32097;DHT22;18610;49.916;8.284;2022-10-31T01:53:36;11.90;99.90
32097;DHT22;18610;49.916;8.284;2022-10-31T01:56:06;11.90;99.90
32097;DHT22;18610;49.916;8.284;2022-10-31T01:58:33;11.80;99.90
32097;DHT22;18610;49.916;8.284;2022-10-31T02:01:01;11.80;99.90
32097;DHT22;18610;49.916;8.284;2022-10-31T02:03:29;11.80;99.90
32097;DHT22;18610;49.916;8.284;2022-10-31T02:05:57;11.70;99.90
32097;DHT22;18610;49.916;8.284;2022-10-31T02:08:27;11.70;99.90
32097;DHT22;18610;49.916;8.284;2022-10-31T02:10:55;11.70;99.90
32097;DHT22;18610;49.916;8.284;2022-10-31T02:13:24;11.60;99.90
32097;DHT22;18610;49.916;8.284;2022-10-31T02:15:54;11.60;99.90
32097;DHT22;18610;49.916;8.284;2022-10-31T02:18:22;11.60;99.90
32097;DHT22;18610;49.916;8.284;2022-10-31T02:20:58;11.60;99.90
32097;DHT22;18610;49.916;8.284;2022-10-31T02:24:00;11.60;99.90
32097;DHT22;18610;49.916;8.284;2022-10-31T02:26:43;11.60;99.90
32097;DHT22;18610;49.916;8.284;2022-10-31T02:29:32;11.50;99.90
32097;DHT22;18610;49.916;8.284;2022-10-31T02:32:09;11.50;99.90
32097;DHT22;18610;49.916;8.284;2022-10-31T02:34:45;11.50;99.90
32097;DHT22;18610;49.916;8.284;2022-10-31T02:37:16;11.40;99.90
32097;DHT22;18610;49.916;8.284;2022-10-31T02:39:51;11.40;99.90
32097;DHT22;18610;49.916;8.284;2022-10-31T02:42:26;11.40;99.90
32097;DHT22;18610;49.916;8.284;2022-10-31T02:45:03;11.40;99.90
32097;DHT22;18610;49.916;8.284;2022-10-31T02:47:37;11.40;99.90
32097;DHT22;18610;49.916;8.284;2022-10-31T02:50:07;11.40;99.90
32097;DHT22;18610;49.916;8.284;2022-10-31T02:52:36;11.40;99.90
32097;DHT22;18610;49.916;8.284;2022-10-31T02:55:10;11.40;99.90
32097;DHT22;18610;49.916;8.284;2022-10-31T02:57:40;11.40;99.90
32097;DHT22;18610;49.916;8.284;2022-10-31T03:00:09;11.40;99.90
32097;DHT22;18610;49.916;8.284;2022-10-31T03:02:46;11.30;99.90
32097;DHT22;18610;49.916;8.284;2022-10-31T03:08:12;11.20;99.90
32097;DHT22;18610;49.916;8.284;2022-10-31T03:10:47;11.20;99.90
32097;DHT22;18610;49.916;8.284;2022-10-31T03:13:21;11.20;99.90
32097;DHT22;18610;49.916;8.284;2022-10-31T03:15:51;11.20;99.90
32097;DHT22;18610;49.916;8.284;2022-10-31T03:18:26;11.10;99.90
32097;DHT22;18610;49.916;8.284;2022-10-31T03:21:00;11.10;99.90
32097;DHT22;18610;49.916;8.284;2022-10-31T03:23:29;11.10;99.90
32097;DHT22;18610;49.916;8.284;2022-10-31T03:25:57;11.00;99.90
32097;DHT22;18610;49.916;8.284;2022-10-31T03:28:29;11.00;99.90
32097;DHT22;18610;49.916;8.284;2022-10-31T03:30:58;11.00;99.90
32097;DHT22;18610;49.916;8.284;2022-10-31T03:33:29;11.00;99.90
32097;DHT22;18610;49.916;8.284;2022-10-31T03:36:00;11.00;99.90
32097;DHT22;18610;49.916;8.284;2022-10-31T03:38:29;10.90;99.90
32097;DHT22;18610;49.916;8.284;2022-10-31T03:40:59;10.90;99.90
32097;DHT22;18610;49.916;8.284;2022-10-31T03:43:29;11.00;99.90
32097;DHT22;18610;49.916;8.284;2022-10-31T03:45:57;11.00;99.90
32097;DHT22;18610;49.916;8.284;2022-10-31T03:48:24;11.00;99.90
32097;DHT22;18610;49.916;8.284;2022-10-31T03:51:14;11.00;99.90
32097;DHT22;18610;49.916;8.284;2022-10-31T03:53:45;10.90;99.90
32097;DHT22;18610;49.916;8.284;2022-10-31T03:56:19;10.90;99.90
32097;DHT22;18610;49.916;8.284;2022-10-31T03:58:50;10.90;99.90
32097;DHT22;18610;49.916;8.284;2022-10-31T04:01:19;10.90;99.90
32097;DHT22;18610;49.916;8.284;2022-10-31T04:03:48;10.90;99.90
32097;DHT22;18610;49.916;8.284;2022-10-31T04:06:18;10.90;99.90
32097;DHT22;18610;49.916;8.284;2022-10-31T04:08:49;11.00;99.90
32097;DHT22;18610;49.916;8.284;2022-10-31T04:11:20;11.00;99.90
32097;DHT22;18610;49.916;8.284;2022-10-31T04:13:49;11.00;99.90
32097;DHT22;18610;49.916;8.284;2022-10-31T04:16:16;10.90;99.90
32097;DHT22;18610;49.916;8.284;2022-10-31T04:18:44;10.90;99.90
32097;DHT22;18610;49.916;8.284;2022-10-31T04:21:13;10.90;99.90
32097;DHT22;18610;49.916;8.284;2022-10-31T04:23:41;10.90;99.90
32097;DHT22;18610;49.916;8.284;2022-10-31T04:26:10;10.90;99.90
32097;DHT22;18610;49.916;8.284;2022-10-31T04:28:38;10.90;99.90
32097;DHT22;18610;49.916;8.284;2022-10-31T04:31:05;10.90;99.90
32097;DHT22;18610;49.916;8.284;2022-10-31T04:33:31;10.90;99.90
32097;DHT22;18610;49.916;8.284;2022-10-31T04:35:58;10.90;99.90
32097;DHT22;18610;49.916;8.284;2022-10-31T04:38:25;10.90;99.90
32097;DHT22;18610;49.916;8.284;2022-10-31T04:40:53;10.90;99.90
32097;DHT22;18610;49.916;8.284;2022-10-31T04:43:20;10.90;99.90
32097;DHT22;18610;49.916;8.284;2022-10-31T04:45:47;10.90;99.90
32097;DHT22;18610;49.916;8.284;2022-10-31T04:48:14;10.90;99.90
32097;DHT22;18610;49.916;8.284;2022-10-31T04:50:41;10.90;99.90
32097;DHT22;18610;49.916;8.284;2022-10-31T04:53:08;10.80;99.90
32097;DHT22;18610;49.916;8.284;2022-10-31T04:55:35;10.80;99.90
32097;DHT22;18610;49.916;8.284;2022-10-31T04:58:03;10.80;99.90
32097;DHT22;18610;49.916;8.284;2022-10-31T05:00:30;10.80;99.90
32097;DHT22;18610;49.916;8.284;2022-10-31T05:02:58;10.80;99.90
32097;DHT22;18610;49.916;8.284;2022-10-31T05:05:26;10.70;99.90
32097;DHT22;18610;49.916;8.284;2022-10-31T05:07:53;10.70;99.90
32097;DHT22;18610;49.916;8.284;2022-10-31T05:10:22;10.70;99.90
32097;DHT22;18610;49.916;8.284;2022-10-31T05:12:51;10.70;99.90
32097;DHT22;18610;49.916;8.284;2022-10-31T05:15:21;10.70;99.90
32097;DHT22;18610;49.916;8.284;2022-10-31T05:17:49;10.70;99.90
32097;DHT22;18610;49.916;8.284;2022-10-31T05:20:17;10.70;99.90
32097;DHT22;18610;49.916;8.284;2022-10-31T05:22:44;10.70;99.90
32097;DHT22;18610;49.916;8.284;2022-10-31T05:25:11;10.70;99.90
32097;DHT22;18610;49.916;8.284;2022-10-31T05:27:39;10.70;99.90
32097;DHT22;18610;49.916;8.284;2022-10-31T05:30:09;10.70;99.90
32097;DHT22;18610;49.916;8.284;2022-10-31T05:32:38;10.70;99.90
32097;DHT22;18610;49.916;8.284;2022-10-31T05:35:06;10.70;99.90
32097;DHT22;18610;49.916;8.284;2022-10-31T05:37:34;10.70;99.90
32097;DHT22;18610;49.916;8.284;2022-10-31T05:40:01;10.70;99.90
32097;DHT22;18610;49.916;8.284;2022-10-31T05:42:27;10.70;99.90
32097;DHT22;18610;49.916;8.284;2022-10-31T05:44:54;10.70;99.90
32097;DHT22;18610;49.916;8.284;2022-10-31T05:47:21;10.70;99.90
32097;DHT22;18610;49.916;8.284;2022-10-31T05:49:49;10.70;99.90
32097;DHT22;18610;49.916;8.284;2022-10-31T05:52:16;10.70;99.90
32097;DHT22;18610;49.916;8.284;2022-10-31T05:54:43;10.70;99.90
32097;DHT22;18610;49.916;8.284;2022-10-31T05:57:10;10.70;99.90
32097;DHT22;18610;49.916;8.284;2022-10-31T05:59:37;10.70;99.90
32097;DHT22;18610;49.916;8.284;2022-10-31T06:02:03;10.70;99.90
32097;DHT22;18610;49.916;8.284;2022-10-31T06:04:30;10.70;99.90
32097;DHT22;18610;49.916;8.284;2022-10-31T06:06:58;10.80;99.90
32097;DHT22;18610;49.916;8.284;2022-10-31T06:09:25;10.80;99.90
32097;DHT22;18610;49.916;8.284;2022-10-31T06:11:52;10.80;99.90
32097;DHT22;18610;49.916;8.284;2022-10-31T06:14:19;10.80;99.90
32097;DHT22;18610;49.916;8.284;2022-10-31T06:16:45;10.80;99.90
32097;DHT22;18610;49.916;8.284;2022-10-31T06:19:12;10.70;99.90
32097;DHT22;18610;49.916;8.284;2022-10-31T06:21:39;10.80;99.90
32097;DHT22;18610;49.916;8.284;2022-10-31T06:24:08;10.80;99.90
32097;DHT22;18610;49.916;8.284;2022-10-31T06:26:34;10.80;99.90
32097;DHT22;18610;49.916;8.284;2022-10-31T06:29:01;10.80;99.90
32097;DHT22;18610;49.916;8.284;2022-10-31T06:31:28;10.90;99.90
32097;DHT22;18610;49.916;8.284;2022-10-31T06:33:55;10.90;99.90
32097;DHT22;18610;49.916;8.284;2022-10-31T06:36:21;10.90;99.90
32097;DHT22;18610;49.916;8.284;2022-10-31T06:38:48;11.00;99.90
32097;DHT22;18610;49.916;8.284;2022-10-31T06:41:16;11.10;99.90
32097;DHT22;18610;49.916;8.284;2022-10-31T06:43:46;11.10;99.90
32097;DHT22;18610;49.916;8.284;2022-10-31T06:46:12;11.10;99.90
32097;DHT22;18610;49.916;8.284;2022-10-31T06:48:40;11.20;99.90
32097;DHT22;18610;49.916;8.284;2022-10-31T06:51:07;11.30;99.90
32097;DHT22;18610;49.916;8.284;2022-10-31T06:53:34;11.40;99.90
32097;DHT22;18610;49.916;8.284;2022-10-31T06:56:00;11.50;99.90
32097;DHT22;18610;49.916;8.284;2022-10-31T06:58:28;11.60;99.90
32097;DHT22;18610;49.916;8.284;2022-10-31T07:00:58;11.70;99.90
32097;DHT22;18610;49.916;8.284;2022-10-31T07:03:24;11.80;99.90
32097;DHT22;18610;49.916;8.284;2022-10-31T07:05:51;11.90;99.90
32097;DHT22;18610;49.916;8.284;2022-10-31T07:08:18;12.00;99.90
32097;DHT22;18610;49.916;8.284;2022-10-31T07:10:51;12.10;99.90
32097;DHT22;18610;49.916;8.284;2022-10-31T07:13:18;12.20;99.90
32097;DHT22;18610;49.916;8.284;2022-10-31T07:15:48;12.30;99.90
32097;DHT22;18610;49.916;8.284;2022-10-31T07:18:15;12.30;99.90
32097;DHT22;18610;49.916;8.284;2022-10-31T07:20:42;12.40;99.90
32097;DHT22;18610;49.916;8.284;2022-10-31T07:23:09;12.40;99.90
32097;DHT22;18610;49.916;8.284;2022-10-31T07:25:37;12.50;99.90
32097;DHT22;18610;49.916;8.284;2022-10-31T07:28:04;12.70;99.90
32097;DHT22;18610;49.916;8.284;2022-10-31T07:30:32;12.80;99.90
32097;DHT22;18610;49.916;8.284;2022-10-31T07:33:00;12.90;99.90
32097;DHT22;18610;49.916;8.284;2022-10-31T07:35:28;13.00;99.90
32097;DHT22;18610;49.916;8.284;2022-10-31T07:37:55;13.10;99.90
32097;DHT22;18610;49.916;8.284;2022-10-31T07:40:23;13.20;99.90
32097;DHT22;18610;49.916;8.284;2022-10-31T07:42:51;13.40;99.90
32097;DHT22;18610;49.916;8.284;2022-10-31T07:45:20;13.60;99.90
32097;DHT22;18610;49.916;8.284;2022-10-31T07:47:48;13.70;99.90
32097;DHT22;18610;49.916;8.284;2022-10-31T07:50:19;13.90;99.90
32097;DHT22;18610;49.916;8.284;2022-10-31T07:52:46;14.00;99.90
32097;DHT22;18610;49.916;8.284;2022-10-31T07:55:14;14.10;99.90
32097;DHT22;18610;49.916;8.284;2022-10-31T07:57:41;14.30;99.90
32097;DHT22;18610;49.916;8.284;2022-10-31T08:00:09;14.40;99.90
32097;DHT22;18610;49.916;8.284;2022-10-31T08:02:36;14.50;99.90
32097;DHT22;18610;49.916;8.284;2022-10-31T08:05:03;14.70;99.90
32097;DHT22;18610;49.916;8.284;2022-10-31T08:07:36;14.90;99.90
32097;DHT22;18610;49.916;8.284;2022-10-31T08:10:03;15.00;99.90
32097;DHT22;18610;49.916;8.284;2022-10-31T08:12:30;15.00;99.90
32097;DHT22;18610;49.916;8.284;2022-10-31T08:14:57;15.00;99.90
32097;DHT22;18610;49.916;8.284;2022-10-31T08:17:27;15.00;99.90
32097;DHT22;18610;49.916;8.284;2022-10-31T08:19:55;15.00;99.90
32097;DHT22;18610;49.916;8.284;2022-10-31T08:22:22;15.10;99.90
32097;DHT22;18610;49.916;8.284;2022-10-31T08:24:50;15.10;99.90
32097;DHT22;18610;49.916;8.284;2022-10-31T08:27:17;15.10;99.90
32097;DHT22;18610;49.916;8.284;2022-10-31T08:29:44;15.20;99.90
32097;DHT22;18610;49.916;8.284;2022-10-31T08:32:10;15.30;99.90
32097;DHT22;18610;49.916;8.284;2022-10-31T08:34:37;15.50;99.90
32097;DHT22;18610;49.916;8.284;2022-10-31T08:37:04;15.60;99.90
32097;DHT22;18610;49.916;8.284;2022-10-31T08:39:31;15.70;99.90
32097;DHT22;18610;49.916;8.284;2022-10-31T08:41:59;15.70;99.90
32097;DHT22;18610;49.916;8.284;2022-10-31T08:44:26;15.70;99.90
32097;DHT22;18610;49.916;8.284;2022-10-31T08:46:53;15.70;99.90
32097;DHT22;18610;49.916;8.284;2022-10-31T08:49:20;15.70;99.90
32097;DHT22;18610;49.916;8.284;2022-10-31T08:51:47;15.80;99.90
32097;DHT22;18610;49.916;8.284;2022-10-31T08:54:14;15.90;99.90
32097;DHT22;18610;49.916;8.284;2022-10-31T08:56:41;16.00;99.90
32097;DHT22;18610;49.916;8.284;2022-10-31T08:59:09;16.10;99.90
32097;DHT22;18610;49.916;8.284;2022-10-31T09:01:36;16.10;99.90
32097;DHT22;18610;49.916;8.284;2022-10-31T09:04:03;16.20;99.90
32097;DHT22;18610;49.916;8.284;2022-10-31T09:06:30;16.30;99.90
32097;DHT22;18610;49.916;8.284;2022-10-31T09:08:57;16.30;99.90
32097;DHT22;18610;49.916;8.284;2022-10-31T09:11:24;16.40;99.90
32097;DHT22;18610;49.916;8.284;2022-10-31T09:13:52;16.50;99.90
32097;DHT22;18610;49.916;8.284;2022-10-31T09:16:20;16.50;99.90
32097;DHT22;18610;49.916;8.284;2022-10-31T09:18:47;16.50;99.90
32097;DHT22;18610;49.916;8.284;2022-10-31T09:21:14;16.60;99.90
32097;DHT22;18610;49.916;8.284;2022-10-31T09:23:41;16.60;99.90
32097;DHT22;18610;49.916;8.284;2022-10-31T09:26:07;16.70;99.90
32097;DHT22;18610;49.916;8.284;2022-10-31T09:28:34;16.70;99.90
32097;DHT22;18610;49.916;8.284;2022-10-31T09:31:01;16.80;99.90
32097;DHT22;18610;49.916;8.284;2022-10-31T09:33:30;16.80;99.90
32097;DHT22;18610;49.916;8.284;2022-10-31T09:35:58;16.90;99.90
32097;DHT22;18610;49.916;8.284;2022-10-31T09:38:25;16.90;99.90
32097;DHT22;18610;49.916;8.284;2022-10-31T09:40:55;17.00;99.90
32097;DHT22;18610;49.916;8.284;2022-10-31T09:43:32;17.00;99.90
32097;DHT22;18610;49.916;8.284;2022-10-31T09:46:07;17.10;99.90
32097;DHT22;18610;49.916;8.284;2022-10-31T09:48:48;17.10;99.90
32097;DHT22;18610;49.916;8.284;2022-10-31T09:51:19;17.20;99.90
32097;DHT22;18610;49.916;8.284;2022-10-31T09:53:50;17.20;99.90
32097;DHT22;18610;49.916;8.284;2022-10-31T09:56:20;17.20;99.90
32097;DHT22;18610;49.916;8.284;2022-10-31T09:58:49;17.20;99.90
32097;DHT22;18610;49.916;8.284;2022-10-31T10:01:30;17.20;99.90
32097;DHT22;18610;49.916;8.284;2022-10-31T10:04:01;17.30;99.90
32097;DHT22;18610;49.916;8.284;2022-10-31T10:06:29;17.20;99.90
32097;DHT22;18610;49.916;8.284;2022-10-31T10:08:59;17.20;99.90
32097;DHT22;18610;49.916;8.284;2022-10-31T10:11:45;17.30;99.90
32097;DHT22;18610;49.916;8.284;2022-10-31T10:14:21;17.30;99.90
32097;DHT22;18610;49.916;8.284;2022-10-31T10:17:04;17.40;99.90
32097;DHT22;18610;49.916;8.284;2022-10-31T10:19:50;17.50;99.90
32097;DHT22;18610;49.916;8.284;2022-10-31T10:22:28;17.60;99.90
32097;DHT22;18610;49.916;8.284;2022-10-31T10:25:07;17.60;99.90
32097;DHT22;18610;49.916;8.284;2022-10-31T10:27:46;17.70;99.90
32097;DHT22;18610;49.916;8.284;2022-10-31T10:30:17;17.70;99.90
32097;DHT22;18610;49.916;8.284;2022-10-31T10:32:47;17.90;99.90
32097;DHT22;18610;49.916;8.284;2022-10-31T10:35:23;17.90;99.90
32097;DHT22;18610;49.916;8.284;2022-10-31T10:37:56;18.00;99.90
32097;DHT22;18610;49.916;8.284;2022-10-31T10:40:24;18.10;99.90
32097;DHT22;18610;49.916;8.284;2022-10-31T10:42:59;18.10;99.90
32097;DHT22;18610;49.916;8.284;2022-10-31T10:45:46;18.20;99.90
32097;DHT22;18610;49.916;8.284;2022-10-31T10:48:39;18.40;99.90
32097;DHT22;18610;49.916;8.284;2022-10-31T10:51:20;18.50;99.90
32097;DHT22;18610;49.916;8.284;2022-10-31T10:53:57;18.70;99.90
32097;DHT22;18610;49.916;8.284;2022-10-31T10:56:37;18.90;99.90
32097;DHT22;18610;49.916;8.284;2022-10-31T10:59:07;19.10;99.90
32097;DHT22;18610;49.916;8.284;2022-10-31T11:01:36;19.40;99.90
32097;DHT22;18610;49.916;8.284;2022-10-31T11:04:23;19.60;99.90
32097;DHT22;18610;49.916;8.284;2022-10-31T11:07:02;19.90;99.90
32097;DHT22;18610;49.916;8.284;2022-10-31T11:09:29;20.10;99.90
32097;DHT22;18610;49.916;8.284;2022-10-31T11:11:56;20.20;99.90
32097;DHT22;18610;49.916;8.284;2022-10-31T11:14:24;20.40;99.90
32097;DHT22;18610;49.916;8.284;2022-10-31T11:16:55;20.50;99.90
32097;DHT22;18610;49.916;8.284;2022-10-31T11:19:25;20.70;99.90
32097;DHT22;18610;49.916;8.284;2022-10-31T11:21:53;20.90;99.90
32097;DHT22;18610;49.916;8.284;2022-10-31T11:24:23;21.00;99.90
32097;DHT22;18610;49.916;8.284;2022-10-31T11:26:51;21.10;99.90
32097;DHT22;18610;49.916;8.284;2022-10-31T11:29:29;21.20;99.90
32097;DHT22;18610;49.916;8.284;2022-10-31T11:31:56;21.20;99.90
32097;DHT22;18610;49.916;8.284;2022-10-31T11:34:29;21.30;99.90
32097;DHT22;18610;49.916;8.284;2022-10-31T11:37:02;21.30;99.90
32097;DHT22;18610;49.916;8.284;2022-10-31T11:39:31;21.20;99.90
32097;DHT22;18610;49.916;8.284;2022-10-31T11:42:01;21.20;99.90
32097;DHT22;18610;49.916;8.284;2022-10-31T11:44:30;21.20;99.90
32097;DHT22;18610;49.916;8.284;2022-10-31T11:46:59;21.20;99.90
32097;DHT22;18610;49.916;8.284;2022-10-31T11:49:31;21.20;99.90
32097;DHT22;18610;49.916;8.284;2022-10-31T11:52:01;21.10;99.90
32097;DHT22;18610;49.916;8.284;2022-10-31T11:54:31;21.10;99.90
32097;DHT22;18610;49.916;8.284;2022-10-31T11:56:59;21.00;99.90
32097;DHT22;18610;49.916;8.284;2022-10-31T11:59:28;21.00;99.90
32097;DHT22;18610;49.916;8.284;2022-10-31T12:01:57;21.10;99.90
32097;DHT22;18610;49.916;8.284;2022-10-31T12:04:36;21.20;99.90
32097;DHT22;18610;49.916;8.284;2022-10-31T12:07:03;21.30;99.90
32097;DHT22;18610;49.916;8.284;2022-10-31T12:09:35;21.50;99.90
32097;DHT22;18610;49.916;8.284;2022-10-31T12:12:21;21.80;99.90
32097;DHT22;18610;49.916;8.284;2022-10-31T12:15:02;22.20;99.90
32097;DHT22;18610;49.916;8.284;2022-10-31T12:17:36;22.70;99.90
32097;DHT22;18610;49.916;8.284;2022-10-31T12:20:12;23.00;99.40
32097;DHT22;18610;49.916;8.284;2022-10-31T12:22:49;23.40;98.80
32097;DHT22;18610;49.916;8.284;2022-10-31T12:25:28;23.80;98.00
32097;DHT22;18610;49.916;8.284;2022-10-31T12:28:25;24.00;97.30
32097;DHT22;18610;49.916;8.284;2022-10-31T12:31:02;24.20;96.80
32097;DHT22;18610;49.916;8.284;2022-10-31T12:33:47;24.40;96.30
32097;DHT22;18610;49.916;8.284;2022-10-31T12:36:25;24.70;95.40
32097;DHT22;18610;49.916;8.284;2022-10-31T12:39:07;25.00;94.70
32097;DHT22;18610;49.916;8.284;2022-10-31T12:41:46;25.20;93.90
32097;DHT22;18610;49.916;8.284;2022-10-31T12:47:22;25.20;93.70
32097;DHT22;18610;49.916;8.284;2022-10-31T12:50:00;25.00;93.80
32097;DHT22;18610;49.916;8.284;2022-10-31T12:52:43;24.60;93.80
32097;DHT22;18610;49.916;8.284;2022-10-31T12:55:27;24.20;94.10
32097;DHT22;18610;49.916;8.284;2022-10-31T12:58:02;23.80;94.50
32097;DHT22;18610;49.916;8.284;2022-10-31T13:00:31;23.40;95.20
32097;DHT22;18610;49.916;8.284;2022-10-31T13:03:04;23.00;96.30
32097;DHT22;18610;49.916;8.284;2022-10-31T13:05:39;22.80;97.30
32097;DHT22;18610;49.916;8.284;2022-10-31T13:08:10;22.60;97.90
32097;DHT22;18610;49.916;8.284;2022-10-31T13:10:42;22.30;98.40
32097;DHT22;18610;49.916;8.284;2022-10-31T13:13:14;22.10;99.20
32097;DHT22;18610;49.916;8.284;2022-10-31T13:15:48;21.90;99.70
32097;DHT22;18610;49.916;8.284;2022-10-31T13:18:19;21.70;99.90
32097;DHT22;18610;49.916;8.284;2022-10-31T13:20:52;21.50;99.90
32097;DHT22;18610;49.916;8.284;2022-10-31T13:23:24;21.30;99.90
32097;DHT22;18610;49.916;8.284;2022-10-31T13:25:55;21.10;99.90
32097;DHT22;18610;49.916;8.284;2022-10-31T13:28:31;20.90;99.90
32097;DHT22;18610;49.916;8.284;2022-10-31T13:31:00;20.80;99.90
32097;DHT22;18610;49.916;8.284;2022-10-31T13:33:32;20.70;99.90
32097;DHT22;18610;49.916;8.284;2022-10-31T13:36:11;20.60;99.90
32097;DHT22;18610;49.916;8.284;2022-10-31T13:38:45;20.40;99.90
32097;DHT22;18610;49.916;8.284;2022-10-31T13:41:24;20.30;99.90
32097;DHT22;18610;49.916;8.284;2022-10-31T13:44:01;20.10;99.90
32097;DHT22;18610;49.916;8.284;2022-10-31T13:46:37;20.00;99.90
32097;DHT22;18610;49.916;8.284;2022-10-31T13:49:18;19.90;99.90
32097;DHT22;18610;49.916;8.284;2022-10-31T13:51:47;19.80;99.90
32097;DHT22;18610;49.916;8.284;2022-10-31T13:54:21;19.70;99.90
32097;DHT22;18610;49.916;8.284;2022-10-31T13:56:49;19.60;99.90
32097;DHT22;18610;49.916;8.284;2022-10-31T13:59:21;19.60;99.90
32097;DHT22;18610;49.916;8.284;2022-10-31T14:01:51;19.50;99.90
32097;DHT22;18610;49.916;8.284;2022-10-31T14:04:20;19.50;99.90
32097;DHT22;18610;49.916;8.284;2022-10-31T14:06:54;19.50;99.90
32097;DHT22;18610;49.916;8.284;2022-10-31T14:09:27;19.60;99.90
32097;DHT22;18610;49.916;8.284;2022-10-31T14:11:56;20.20;99.90
32097;DHT22;18610;49.916;8.284;2022-10-31T14:14:32;21.60;99.90
32097;DHT22;18610;49.916;8.284;2022-10-31T14:17:00;23.60;99.90
32097;DHT22;18610;49.916;8.284;2022-10-31T14:19:27;25.50;97.80
32097;DHT22;18610;49.916;8.284;2022-10-31T14:21:54;27.30;93.70
32097;DHT22;18610;49.916;8.284;2022-10-31T14:24:36;28.70;88.30
32097;DHT22;18610;49.916;8.284;2022-10-31T14:29:47;30.60;73.90
32097;DHT22;18610;49.916;8.284;2022-10-31T14:32:20;31.30;68.30
32097;DHT22;18610;49.916;8.284;2022-10-31T14:34:53;30.90;66.00
32097;DHT22;18610;49.916;8.284;2022-10-31T14:37:38;30.20;66.70
32097;DHT22;18610;49.916;8.284;2022-10-31T14:40:23;29.30;68.30
32097;DHT22;18610;49.916;8.284;2022-10-31T14:45:50;27.30;74.30
32097;DHT22;18610;49.916;8.284;2022-10-31T14:48:38;26.20;79.00
32097;DHT22;18610;49.916;8.284;2022-10-31T14:51:11;25.20;84.20
32097;DHT22;18610;49.916;8.284;2022-10-31T14:53:44;24.30;89.40
32097;DHT22;18610;49.916;8.284;2022-10-31T14:56:16;23.40;92.00
32097;DHT22;18610;49.916;8.284;2022-10-31T14:58:47;22.70;94.20
32097;DHT22;18610;49.916;8.284;2022-10-31T15:01:25;22.10;96.50
32097;DHT22;18610;49.916;8.284;2022-10-31T15:03:57;21.40;98.80
32097;DHT22;18610;49.916;8.284;2022-10-31T15:06:24;20.80;99.90
32097;DHT22;18610;49.916;8.284;2022-10-31T15:08:53;20.30;99.90
32097;DHT22;18610;49.916;8.284;2022-10-31T15:11:21;19.90;99.90
32097;DHT22;18610;49.916;8.284;2022-10-31T15:13:51;19.60;99.90
32097;DHT22;18610;49.916;8.284;2022-10-31T15:16:22;19.20;99.90
32097;DHT22;18610;49.916;8.284;2022-10-31T15:18:51;18.90;99.90
32097;DHT22;18610;49.916;8.284;2022-10-31T15:21:19;18.70;99.90
32097;DHT22;18610;49.916;8.284;2022-10-31T15:23:47;18.70;99.90
32097;DHT22;18610;49.916;8.284;2022-10-31T15:26:18;18.80;99.90
32097;DHT22;18610;49.916;8.284;2022-10-31T15:28:45;19.00;99.90
32097;DHT22;18610;49.916;8.284;2022-10-31T15:31:13;19.20;99.90
32097;DHT22;18610;49.916;8.284;2022-10-31T15:33:46;19.20;99.90
32097;DHT22;18610;49.916;8.284;2022-10-31T15:36:19;19.20;99.90
32097;DHT22;18610;49.916;8.284;2022-10-31T15:38:46;19.10;99.90
32097;DHT22;18610;49.916;8.284;2022-10-31T15:41:24;19.00;99.90
32097;DHT22;18610;49.916;8.284;2022-10-31T15:43:51;18.80;99.90
32097;DHT22;18610;49.916;8.284;2022-10-31T15:46:18;18.70;99.90
32097;DHT22;18610;49.916;8.284;2022-10-31T15:48:47;18.50;99.90
32097;DHT22;18610;49.916;8.284;2022-10-31T15:51:14;18.40;99.90
32097;DHT22;18610;49.916;8.284;2022-10-31T15:53:44;18.30;99.90
32097;DHT22;18610;49.916;8.284;2022-10-31T15:56:18;18.10;99.90
32097;DHT22;18610;49.916;8.284;2022-10-31T15:58:48;18.00;99.90
32097;DHT22;18610;49.916;8.284;2022-10-31T16:01:21;17.80;99.90